createdAt,value
2023-04-18T00:00:31.579Z,7.70
2023-04-18T00:03:03.891Z,7.50
2023-04-18T00:05:33.511Z,7.30
2023-04-18T00:08:03.033Z,7.10
2023-04-18T00:10:31.502Z,6.80
2023-04-18T00:13:00.487Z,6.80
2023-04-18T00:15:31.443Z,6.60
2023-04-18T00:18:03.878Z,6.50
2023-04-18T00:20:32.959Z,6.50
2023-04-18T00:23:02.064Z,6.40
2023-04-18T00:25:30.509Z,6.30
2023-04-18T00:27:59.823Z,6.20
2023-04-18T00:30:30.668Z,6.10
2023-04-18T00:32:59.213Z,6.00
2023-04-18T00:35:27.706Z,5.90
2023-04-18T00:37:56.933Z,5.80
2023-04-18T00:40:25.724Z,5.70
2023-04-18T00:42:54.772Z,5.60
2023-04-18T00:45:23.363Z,5.50
2023-04-18T00:47:53.752Z,5.40
2023-04-18T00:50:24.739Z,5.40
2023-04-18T00:52:56.933Z,5.30
2023-04-18T00:55:26.135Z,5.20
2023-04-18T00:57:56.005Z,5.10
2023-04-18T01:00:26.236Z,5.00
2023-04-18T01:02:56.451Z,5.00
2023-04-18T01:05:28.798Z,4.90
2023-04-18T01:08:01.347Z,4.80
2023-04-18T01:10:33.919Z,4.70
2023-04-18T01:13:12.835Z,4.70
2023-04-18T01:15:43.684Z,4.70
2023-04-18T01:18:16.865Z,4.60
2023-04-18T01:20:47.927Z,4.60
2023-04-18T01:23:18.716Z,4.60
2023-04-18T01:25:50.738Z,4.60
2023-04-18T01:28:21.270Z,4.60
2023-04-18T01:30:50.745Z,4.60
2023-04-18T01:33:21.747Z,4.50
2023-04-18T01:35:51.176Z,4.50
2023-04-18T01:38:19.924Z,4.50
2023-04-18T01:40:50.881Z,4.50
2023-04-18T01:43:19.678Z,4.60
2023-04-18T01:45:49.103Z,4.60
2023-04-18T01:48:19.246Z,4.60
2023-04-18T01:50:47.874Z,4.60
2023-04-18T01:53:18.130Z,4.60
2023-04-18T01:55:47.043Z,4.60
2023-04-18T01:58:18.595Z,4.60
2023-04-18T02:00:47.417Z,4.60
2023-04-18T02:03:19.001Z,4.50
2023-04-18T02:05:47.409Z,4.50
2023-04-18T02:08:15.826Z,4.60
2023-04-18T02:10:47.494Z,4.60
2023-04-18T02:13:18.217Z,4.60
2023-04-18T02:15:47.285Z,4.60
2023-04-18T02:18:17.412Z,4.50
2023-04-18T02:20:45.986Z,4.50
2023-04-18T02:23:14.987Z,4.40
2023-04-18T02:25:43.745Z,4.40
2023-04-18T02:28:12.340Z,4.40
2023-04-18T02:30:42.256Z,4.40
2023-04-18T02:33:14.022Z,4.40
2023-04-18T02:35:43.316Z,4.30
2023-04-18T02:38:12.037Z,4.30
2023-04-18T02:40:41.207Z,4.30
2023-04-18T02:43:13.117Z,4.20
2023-04-18T02:45:46.075Z,4.10
2023-04-18T02:48:14.892Z,3.90
2023-04-18T02:50:43.219Z,3.80
2023-04-18T02:53:14.254Z,3.70
2023-04-18T02:55:52.529Z,3.70
2023-04-18T02:58:23.229Z,3.60
2023-04-18T03:01:13.434Z,3.50
2023-04-18T03:04:04.638Z,3.40
2023-04-18T03:06:38.663Z,3.30
2023-04-18T03:09:09.482Z,3.20
2023-04-18T03:11:44.384Z,3.20
2023-04-18T03:14:14.282Z,3.10
2023-04-18T03:16:54.689Z,3.10
2023-04-18T03:19:28.595Z,3.00
2023-04-18T03:21:59.679Z,3.00
2023-04-18T03:24:29.289Z,3.00
2023-04-18T03:27:01.063Z,3.00
2023-04-18T03:29:29.882Z,3.00
2023-04-18T03:31:59.879Z,2.90
2023-04-18T03:34:29.253Z,2.90
2023-04-18T03:37:01.436Z,2.90
2023-04-18T03:39:32.143Z,2.90
2023-04-18T03:42:05.962Z,2.90
2023-04-18T03:44:36.438Z,2.90
2023-04-18T03:47:08.748Z,2.90
2023-04-18T03:49:41.108Z,2.80
2023-04-18T03:52:09.870Z,2.70
2023-04-18T03:54:39.548Z,2.60
2023-04-18T03:57:10.377Z,2.70
2023-04-18T03:59:39.700Z,2.60
2023-04-18T04:02:10.772Z,2.60
2023-04-18T04:04:42.676Z,2.60
2023-04-18T04:07:14.284Z,2.60
2023-04-18T04:09:43.643Z,2.60
2023-04-18T04:12:12.425Z,2.60
2023-04-18T04:14:42.449Z,2.60
2023-04-18T04:17:13.439Z,2.60
2023-04-18T04:19:43.107Z,2.50
2023-04-18T04:22:15.817Z,2.40
2023-04-18T04:24:46.777Z,2.30
2023-04-18T04:27:19.164Z,2.30
2023-04-18T04:29:49.495Z,2.20
2023-04-18T04:32:33.141Z,2.10
2023-04-18T04:35:02.154Z,2.20
2023-04-18T04:37:33.780Z,2.10
2023-04-18T04:40:17.591Z,2.00
2023-04-18T04:42:54.036Z,2.00
2023-04-18T04:45:28.836Z,1.90
2023-04-18T04:47:59.314Z,1.90
2023-04-18T04:50:27.891Z,1.80
2023-04-18T04:52:56.522Z,1.90
2023-04-18T04:55:25.508Z,1.80
2023-04-18T04:57:54.303Z,1.90
2023-04-18T05:00:41.733Z,1.90
2023-04-18T05:03:12.520Z,1.80
2023-04-18T05:05:41.664Z,1.90
2023-04-18T05:08:10.433Z,1.90
2023-04-18T05:10:39.889Z,1.90
2023-04-18T05:13:08.403Z,2.00
2023-04-18T05:15:39.588Z,2.00
2023-04-18T05:18:08.786Z,2.00
2023-04-18T05:20:42.827Z,2.10
2023-04-18T05:23:11.680Z,2.00
2023-04-18T05:25:40.850Z,2.00
2023-04-18T05:28:09.637Z,2.10
2023-04-18T05:30:38.006Z,2.20
2023-04-18T05:33:06.712Z,2.20
2023-04-18T05:35:35.576Z,2.30
2023-04-18T05:38:07.684Z,2.40
2023-04-18T05:40:36.344Z,2.60
2023-04-18T05:43:07.071Z,2.70
2023-04-18T05:45:35.497Z,2.90
2023-04-18T05:48:04.456Z,3.10
2023-04-18T05:50:32.750Z,3.20
2023-04-18T05:53:01.908Z,3.40
2023-04-18T05:55:31.870Z,3.60
2023-04-18T05:58:00.928Z,3.80
2023-04-18T06:00:29.286Z,3.90
2023-04-18T06:02:58.307Z,4.10
2023-04-18T06:05:27.882Z,4.20
2023-04-18T06:07:56.909Z,4.40
2023-04-18T06:10:25.841Z,4.50
2023-04-18T06:12:56.095Z,4.60
2023-04-18T06:15:26.017Z,4.70
2023-04-18T06:17:55.542Z,4.80
2023-04-18T06:20:24.218Z,4.90
2023-04-18T06:22:52.783Z,5.00
2023-04-18T06:25:21.637Z,5.10
2023-04-18T06:27:50.336Z,5.20
2023-04-18T06:30:21.994Z,5.40
2023-04-18T06:32:53.405Z,5.50
2023-04-18T06:35:21.827Z,5.80
2023-04-18T06:37:52.296Z,6.00
2023-04-18T06:40:21.561Z,6.20
2023-04-18T06:42:50.981Z,6.40
2023-04-18T06:45:22.801Z,6.60
2023-04-18T06:47:54.632Z,6.70
2023-04-18T06:50:24.177Z,7.00
2023-04-18T06:52:53.058Z,7.10
2023-04-18T06:55:22.460Z,7.20
2023-04-18T06:57:51.923Z,7.30
2023-04-18T07:00:23.323Z,7.40
2023-04-18T07:02:52.091Z,7.50
2023-04-18T07:05:20.797Z,7.70
2023-04-18T07:07:50.135Z,7.80
2023-04-18T07:10:18.877Z,7.90
2023-04-18T07:12:47.599Z,8.00
2023-04-18T07:15:16.269Z,8.00
2023-04-18T07:17:46.924Z,8.10
2023-04-18T07:20:16.384Z,8.20
2023-04-18T07:22:45.955Z,8.30
2023-04-18T07:25:14.410Z,8.40
2023-04-18T07:27:43.608Z,8.50
2023-04-18T07:30:15.196Z,8.60
2023-04-18T07:32:47.266Z,8.70
2023-04-18T07:35:16.923Z,8.80
2023-04-18T07:37:45.687Z,9.10
2023-04-18T07:40:17.042Z,9.40
2023-04-18T07:42:47.459Z,9.80
2023-04-18T07:45:17.969Z,10.10
2023-04-18T07:47:48.979Z,10.30
2023-04-18T07:50:20.032Z,10.50
2023-04-18T07:52:48.655Z,10.60
2023-04-18T07:55:18.081Z,10.80
2023-04-18T07:57:50.470Z,10.90
2023-04-18T08:00:19.956Z,11.20
2023-04-18T08:02:52.779Z,11.20
2023-04-18T08:05:22.038Z,11.00
2023-04-18T08:07:50.516Z,10.80
2023-04-18T08:10:19.101Z,10.70
2023-04-18T08:12:47.999Z,10.80
2023-04-18T08:15:16.767Z,11.00
2023-04-18T08:17:49.038Z,11.20
2023-04-18T08:20:25.417Z,11.40
2023-04-18T08:23:05.075Z,11.50
2023-04-18T08:25:38.247Z,11.60
2023-04-18T08:28:07.073Z,11.70
2023-04-18T08:30:36.486Z,11.60
2023-04-18T08:33:05.572Z,11.50
2023-04-18T08:35:36.030Z,11.30
2023-04-18T08:38:04.557Z,11.30
2023-04-18T08:40:33.483Z,11.20
2023-04-18T08:43:05.183Z,11.20
2023-04-18T08:45:34.432Z,11.30
2023-04-18T08:48:04.094Z,11.30
2023-04-18T08:50:33.039Z,11.40
2023-04-18T08:53:07.329Z,11.60
2023-04-18T08:55:36.189Z,11.80
2023-04-18T08:58:08.459Z,12.10
2023-04-18T09:00:38.558Z,12.20
2023-04-18T09:03:41.149Z,12.40
2023-04-18T09:06:12.525Z,12.50
2023-04-18T09:08:45.364Z,12.60
2023-04-18T09:11:29.097Z,12.60
2023-04-18T09:13:58.937Z,12.60
2023-04-18T09:16:29.450Z,12.60
2023-04-18T09:19:18.882Z,12.70
2023-04-18T09:21:49.084Z,12.80
2023-04-18T09:24:27.316Z,13.00
2023-04-18T09:26:57.062Z,13.20
2023-04-18T09:29:46.714Z,13.30
2023-04-18T09:32:25.190Z,13.30
2023-04-18T09:34:58.452Z,13.40
2023-04-18T09:37:27.680Z,13.50
2023-04-18T09:39:58.110Z,13.60
2023-04-18T09:42:28.813Z,13.60
2023-04-18T09:45:04.816Z,13.70
2023-04-18T09:47:36.938Z,14.00
2023-04-18T09:50:06.593Z,14.20
2023-04-18T09:52:37.103Z,14.30
2023-04-18T09:55:08.896Z,14.30
2023-04-18T09:57:40.623Z,14.30
2023-04-18T10:00:14.638Z,14.40
2023-04-18T10:02:52.266Z,14.30
2023-04-18T10:05:25.381Z,14.30
2023-04-18T10:07:55.299Z,14.20
2023-04-18T10:10:26.271Z,14.10
2023-04-18T10:12:57.724Z,14.10
2023-04-18T10:15:28.086Z,14.20
2023-04-18T10:18:04.425Z,14.30
2023-04-18T10:20:36.088Z,14.30
2023-04-18T10:23:36.132Z,14.40
2023-04-18T10:26:07.563Z,14.50
2023-04-18T10:28:54.975Z,14.50
2023-04-18T10:31:24.734Z,14.80
2023-04-18T10:36:28.556Z,14.80
2023-04-18T10:39:03.284Z,14.60
2023-04-18T10:41:38.029Z,14.20
2023-04-18T10:44:18.367Z,13.90
2023-04-18T10:47:33.956Z,13.60
2023-04-18T10:50:06.883Z,13.60
2023-04-18T10:52:35.703Z,13.40
2023-04-18T10:55:11.375Z,13.30
2023-04-18T10:57:43.231Z,13.10
2023-04-18T11:00:13.961Z,13.00
2023-04-18T11:02:49.567Z,12.90
2023-04-18T11:05:23.128Z,13.00
2023-04-18T11:07:51.364Z,13.20
2023-04-18T11:10:22.454Z,13.40
2023-04-18T11:12:52.649Z,13.70
2023-04-18T11:15:22.849Z,13.90
2023-04-18T11:17:59.898Z,14.00
2023-04-18T11:20:28.964Z,14.10
2023-04-18T11:22:58.713Z,14.10
2023-04-18T11:25:29.654Z,14.30
2023-04-18T11:28:03.124Z,14.50
2023-04-18T11:30:39.195Z,14.80
2023-04-18T11:33:09.535Z,15.00
2023-04-18T11:35:40.876Z,14.80
2023-04-18T11:38:10.290Z,14.60
2023-04-18T11:40:40.532Z,14.20
2023-04-18T11:43:10.687Z,14.10
2023-04-18T11:45:39.726Z,14.00
2023-04-18T11:48:09.152Z,13.90
2023-04-18T11:50:38.850Z,13.90
2023-04-18T11:53:07.489Z,14.00
2023-04-18T11:55:36.008Z,14.00
2023-04-18T11:58:04.643Z,14.00
2023-04-18T12:00:38.885Z,14.00
2023-04-18T12:03:13.383Z,13.90
2023-04-18T12:05:43.944Z,13.80
2023-04-18T12:08:16.665Z,13.80
2023-04-18T12:10:48.017Z,13.80
2023-04-18T12:13:16.346Z,13.90
2023-04-18T12:15:47.552Z,13.90
2023-04-18T12:18:20.466Z,13.90
2023-04-18T12:20:51.776Z,14.00
2023-04-18T12:23:34.899Z,14.20
2023-04-18T12:26:04.526Z,14.20
2023-04-18T12:28:34.554Z,14.20
2023-04-18T12:31:07.956Z,14.20
2023-04-18T12:33:37.543Z,14.30
2023-04-18T12:36:08.514Z,14.60
2023-04-18T12:38:37.557Z,14.70
2023-04-18T12:41:06.557Z,14.80
2023-04-18T12:43:35.459Z,14.90
2023-04-18T12:46:10.582Z,15.10
2023-04-18T12:48:39.598Z,15.30
2023-04-18T12:51:10.624Z,15.70
2023-04-18T12:53:39.014Z,16.00
2023-04-18T12:56:09.956Z,16.00
2023-04-18T12:58:38.315Z,16.60
2023-04-18T13:01:09.527Z,16.90
2023-04-18T13:03:38.721Z,17.30
2023-04-18T13:06:07.937Z,17.50
2023-04-18T13:08:38.391Z,17.60
2023-04-18T13:11:07.169Z,17.80
2023-04-18T13:13:35.855Z,17.50
2023-04-18T13:16:04.444Z,17.10
2023-04-18T13:18:37.989Z,16.70
2023-04-18T13:21:06.744Z,16.20
2023-04-18T13:23:35.633Z,16.00
2023-04-18T13:26:04.431Z,15.70
2023-04-18T13:28:33.789Z,15.70
2023-04-18T13:31:02.592Z,15.60
2023-04-18T13:33:30.978Z,15.50
2023-04-18T13:36:00.813Z,15.40
2023-04-18T13:38:29.153Z,15.00
2023-04-18T13:41:10.994Z,15.10
2023-04-18T13:43:40.901Z,15.20
2023-04-18T13:46:09.076Z,15.40
2023-04-18T13:48:37.409Z,15.20
2023-04-18T13:51:07.942Z,15.00
2023-04-18T13:53:37.813Z,15.20
2023-04-18T13:56:07.425Z,15.30
2023-04-18T13:58:36.379Z,15.40
2023-04-18T14:01:04.754Z,15.50
2023-04-18T14:03:35.416Z,15.50
2023-04-18T14:06:07.442Z,15.60
2023-04-18T14:08:37.550Z,15.80
2023-04-18T14:11:05.902Z,15.90
2023-04-18T14:13:36.155Z,15.90
2023-04-18T14:16:04.617Z,16.20
2023-04-18T14:18:33.117Z,16.20
2023-04-18T14:21:01.420Z,16.20
2023-04-18T14:23:31.236Z,16.20
2023-04-18T14:25:59.816Z,16.20
2023-04-18T14:28:28.242Z,16.10
2023-04-18T14:30:57.878Z,15.50
2023-04-18T14:33:26.593Z,15.60
2023-04-18T14:35:55.926Z,15.60
2023-04-18T14:38:24.292Z,15.60
2023-04-18T14:40:53.984Z,15.60
2023-04-18T14:43:23.130Z,15.70
2023-04-18T14:45:51.848Z,15.60
2023-04-18T14:48:21.345Z,15.60
2023-04-18T14:50:57.814Z,15.60
2023-04-18T14:53:26.749Z,15.60
2023-04-18T14:55:57.383Z,15.50
2023-04-18T14:58:27.522Z,15.50
2023-04-18T15:00:58.140Z,15.50
2023-04-18T15:03:27.156Z,15.50
2023-04-18T15:05:56.097Z,15.60
2023-04-18T15:08:24.865Z,15.60
2023-04-18T15:10:53.771Z,15.60
2023-04-18T15:13:24.492Z,15.60
2023-04-18T15:15:54.490Z,15.60
2023-04-18T15:18:23.462Z,15.60
2023-04-18T15:20:57.550Z,15.40
2023-04-18T15:23:26.463Z,15.30
2023-04-18T15:25:56.327Z,15.30
2023-04-18T15:28:26.831Z,15.10
2023-04-18T15:30:55.416Z,15.10
2023-04-18T15:33:25.588Z,15.10
2023-04-18T15:35:53.970Z,15.00
2023-04-18T15:38:22.512Z,15.00
2023-04-18T15:40:51.448Z,15.00
2023-04-18T15:43:20.216Z,14.90
2023-04-18T15:45:51.142Z,15.00
2023-04-18T15:48:19.961Z,15.00
2023-04-18T15:50:52.911Z,14.90
2023-04-18T15:53:21.763Z,14.90
2023-04-18T15:55:51.054Z,14.80
2023-04-18T15:58:20.532Z,14.90
2023-04-18T16:00:51.495Z,14.80
2023-04-18T16:03:21.473Z,14.90
2023-04-18T16:05:52.231Z,14.90
2023-04-18T16:08:21.392Z,14.90
2023-04-18T16:10:50.027Z,14.90
2023-04-18T16:13:20.753Z,14.90
2023-04-18T16:15:51.218Z,15.00
2023-04-18T16:18:20.233Z,14.90
2023-04-18T16:20:48.821Z,14.90
2023-04-18T16:23:17.559Z,14.80
2023-04-18T16:25:46.431Z,14.80
2023-04-18T16:28:14.992Z,14.80
2023-04-18T16:30:44.115Z,14.80
2023-04-18T16:33:14.754Z,14.80
2023-04-18T16:35:43.022Z,14.80
2023-04-18T16:38:11.439Z,14.70
2023-04-18T16:40:39.947Z,14.70
2023-04-18T16:43:08.251Z,14.60
2023-04-18T16:45:36.838Z,14.50
2023-04-18T16:48:06.213Z,14.50
2023-04-18T16:50:36.220Z,14.50
2023-04-18T16:53:04.535Z,14.40
2023-04-18T16:55:33.845Z,14.40
2023-04-18T16:58:02.446Z,14.40
2023-04-18T17:00:30.900Z,14.40
2023-04-18T17:03:01.823Z,14.40
2023-04-18T17:05:33.546Z,14.40
2023-04-18T17:08:04.088Z,14.40
2023-04-18T17:10:32.816Z,14.50
2023-04-18T17:13:04.387Z,14.50
2023-04-18T17:15:33.211Z,14.40
2023-04-18T17:18:04.738Z,14.40
2023-04-18T17:20:33.323Z,14.30
2023-04-18T17:23:03.130Z,14.30
2023-04-18T17:25:35.823Z,14.30
2023-04-18T17:28:04.916Z,14.30
2023-04-18T17:30:33.456Z,14.30
2023-04-18T17:33:04.087Z,14.20
2023-04-18T17:35:32.728Z,14.20
2023-04-18T17:38:05.370Z,14.10
2023-04-18T17:40:34.083Z,14.10
2023-04-18T17:43:04.461Z,14.10
2023-04-18T17:45:32.983Z,14.10
2023-04-18T17:48:03.357Z,14.00
2023-04-18T17:50:37.100Z,14.00
2023-04-18T17:53:07.385Z,14.00
2023-04-18T17:55:36.011Z,13.90
2023-04-18T17:58:05.994Z,13.90
2023-04-18T18:00:36.688Z,13.90
2023-04-18T18:03:05.650Z,13.80
2023-04-18T18:05:34.516Z,13.80
2023-04-18T18:08:04.530Z,13.80
2023-04-18T18:10:37.132Z,13.70
2023-04-18T18:13:05.959Z,13.70
2023-04-18T18:15:34.837Z,13.60
2023-04-18T18:18:04.753Z,13.60
2023-04-18T18:20:33.425Z,13.50
2023-04-18T18:23:03.011Z,13.50
2023-04-18T18:25:33.775Z,13.40
2023-04-18T18:28:03.685Z,13.40
2023-04-18T18:30:33.164Z,13.30
2023-04-18T18:33:04.066Z,13.20
2023-04-18T18:35:32.430Z,13.20
2023-04-18T18:38:01.479Z,13.20
2023-04-18T18:40:30.531Z,13.10
2023-04-18T18:43:03.546Z,13.00
2023-04-18T18:45:32.437Z,13.10
2023-04-18T18:48:04.174Z,13.00
2023-04-18T18:50:32.958Z,13.00
2023-04-18T18:53:02.687Z,13.00
2023-04-18T18:55:31.314Z,13.00
2023-04-18T18:57:59.718Z,12.90
2023-04-18T19:00:29.543Z,12.90
2023-04-18T19:02:58.152Z,12.80
2023-04-18T19:05:27.171Z,12.80
2023-04-18T19:07:56.415Z,12.70
2023-04-18T19:10:24.841Z,12.60
2023-04-18T19:12:53.698Z,12.50
2023-04-18T19:15:22.837Z,12.40
2023-04-18T19:17:54.261Z,12.30
2023-04-18T19:20:22.974Z,12.20
2023-04-18T19:22:52.111Z,12.00
2023-04-18T19:25:20.667Z,11.90
2023-04-18T19:27:51.874Z,11.60
2023-04-18T19:30:21.353Z,11.50
2023-04-18T19:32:51.733Z,11.30
2023-04-18T19:35:23.582Z,11.20
2023-04-18T19:37:52.656Z,11.10
2023-04-18T19:40:23.861Z,11.00
2023-04-18T19:42:52.052Z,11.00
2023-04-18T19:45:21.026Z,10.90
2023-04-18T19:47:49.379Z,10.90
2023-04-18T19:50:19.036Z,10.80
2023-04-18T19:52:50.193Z,10.80
2023-04-18T19:55:19.251Z,10.70
2023-04-18T19:57:49.652Z,10.70
2023-04-18T20:00:19.960Z,10.60
2023-04-18T20:02:48.504Z,10.50
2023-04-18T20:05:19.737Z,10.40
2023-04-18T20:07:50.080Z,10.30
2023-04-18T20:10:22.239Z,10.20
2023-04-18T20:12:51.458Z,10.10
2023-04-18T20:15:20.544Z,10.10
2023-04-18T20:17:51.835Z,10.10
2023-04-18T20:20:20.316Z,10.00
2023-04-18T20:22:50.269Z,9.90
2023-04-18T20:25:21.241Z,9.80
2023-04-18T20:27:52.322Z,9.60
2023-04-18T20:30:21.989Z,9.60
2023-04-18T20:32:51.502Z,9.50
2023-04-18T20:35:22.162Z,9.50
2023-04-18T20:37:52.186Z,9.50
2023-04-18T20:40:20.926Z,9.40
2023-04-18T20:42:49.392Z,9.30
2023-04-18T20:45:18.186Z,9.30
2023-04-18T20:47:47.944Z,9.20
2023-04-18T20:50:18.166Z,9.10
2023-04-18T20:52:47.203Z,9.00
2023-04-18T20:55:20.170Z,8.90
2023-04-18T20:57:49.709Z,8.90
2023-04-18T21:00:19.949Z,8.80
2023-04-18T21:02:48.957Z,8.80
2023-04-18T21:05:18.026Z,8.80
2023-04-18T21:07:46.979Z,8.80
2023-04-18T21:10:18.876Z,8.70
2023-04-18T21:12:47.753Z,8.70
2023-04-18T21:15:16.694Z,8.70
2023-04-18T21:17:45.052Z,8.70
2023-04-18T21:20:14.677Z,8.80
2023-04-18T21:22:43.773Z,8.90
2023-04-18T21:25:13.880Z,9.10
2023-04-18T21:27:43.976Z,9.20
2023-04-18T21:30:13.247Z,9.20
2023-04-18T21:32:42.222Z,9.30
2023-04-18T21:35:11.594Z,9.30
2023-04-18T21:37:40.830Z,9.40
2023-04-18T21:40:10.504Z,9.40
2023-04-18T21:42:40.180Z,9.50
2023-04-18T21:45:12.395Z,9.60
2023-04-18T21:47:41.477Z,9.60
2023-04-18T21:50:11.593Z,9.60
2023-04-18T21:52:40.679Z,9.60
2023-04-18T21:55:10.013Z,9.60
2023-04-18T21:57:38.467Z,9.50
2023-04-18T22:00:11.457Z,9.50
2023-04-18T22:02:41.471Z,9.50
2023-04-18T22:05:09.999Z,9.50
2023-04-18T22:07:54.297Z,9.50
2023-04-18T22:10:26.759Z,9.50
2023-04-18T22:12:56.286Z,9.50
2023-04-18T22:15:27.909Z,9.50
2023-04-18T22:17:59.620Z,9.50
2023-04-18T22:20:28.214Z,9.40
2023-04-18T22:22:56.654Z,9.30
2023-04-18T22:25:25.134Z,9.30
2023-04-18T22:27:53.881Z,9.40
2023-04-18T22:30:23.636Z,9.40
2023-04-18T22:32:53.519Z,9.50
2023-04-18T22:35:22.529Z,9.50
2023-04-18T22:37:51.249Z,9.40
2023-04-18T22:40:21.334Z,9.40
2023-04-18T22:42:51.997Z,9.30
2023-04-18T22:45:21.197Z,9.20
2023-04-18T22:47:49.978Z,9.00
2023-04-18T22:50:20.260Z,8.90
2023-04-18T22:52:51.428Z,8.70
2023-04-18T22:55:20.865Z,8.60
2023-04-18T22:57:51.148Z,8.50
2023-04-18T23:00:19.653Z,8.50
2023-04-18T23:02:52.747Z,8.50
2023-04-18T23:05:23.480Z,8.50
2023-04-18T23:07:52.146Z,8.60
2023-04-18T23:10:20.561Z,8.50
2023-04-18T23:12:48.861Z,8.50
2023-04-18T23:15:17.427Z,8.30
2023-04-18T23:17:48.561Z,8.20
2023-04-18T23:20:16.968Z,8.20
2023-04-18T23:22:49.969Z,8.20
2023-04-18T23:25:20.069Z,8.20
2023-04-18T23:27:49.140Z,8.30
2023-04-18T23:30:17.344Z,8.40
2023-04-18T23:32:46.244Z,8.50
2023-04-18T23:35:15.368Z,8.50
2023-04-18T23:37:47.490Z,8.50
2023-04-18T23:40:17.732Z,8.60
2023-04-18T23:42:47.185Z,8.60
2023-04-18T23:45:17.712Z,8.70
2023-04-18T23:47:47.812Z,8.80
2023-04-18T23:50:16.518Z,8.80
2023-04-18T23:52:44.614Z,8.90
2023-04-18T23:55:14.809Z,8.90
2023-04-18T23:57:44.556Z,9.00
